Rhea — PDEB — position and weather

sailwx.info

Track history (hours):
 
Tides and Currents Weather Stations Pressure Air Temp Water Temp Dewpoint Dewpoint Depression Visibility Wind Speed Wind Dir Waves Ship Positions

Rhea

Last reported at 2018-May-23 07:17 UTC. Time now 2018-May-25 05:22 UTC.
Position N 37°01' W 007°38'.

Length 48 m; draft 4.2 m.

Type: Sailing vessel. MMSI: 244060297.

Date/timePositionNaut miles runAvg speedWind from/ knotsBaromVisibWave heightAir tempDewpointWater temp
2018-May-23 07:17N 37°01' W 007°38'3 6.4
2018-May-23 06:52N 36°60' W 007°41'10 0.3
2018-May-21 18:05N 36°57' W 007°53'1 5.9
2018-May-21 18:00N 36°56' W 007°54'5 6.0
2018-May-21 17:14N 36°53' W 007°58'2 7.3
2018-May-21 16:57N 36°54' W 008°00'4 7.9
2018-May-21 16:30N 36°54' W 008°04'4 7.7
2018-May-21 16:00N 36°55' W 008°09'4 8.5
2018-May-21 15:30N 36°57' W 008°14'4 8.4
2018-May-21 15:00N 36°58' W 008°19'4 7.9
2018-May-21 14:30N 36°59' W 008°24'4 7.8
2018-May-21 14:00N 37°00' W 008°29'4 7.6
2018-May-21 13:31N 37°02' W 008°33'2 3.5
2018-May-21 13:00N 37°03' W 008°34'3 6.1
2018-May-21 12:30N 37°05' W 008°37'2 4.3
2018-May-21 12:01N 37°06' W 008°40'0 0.1
2018-May-21 11:26N 37°06' W 008°40'0 0.0
2018-May-21 10:56N 37°06' W 008°40'0 0.0
2018-May-21 10:26N 37°06' W 008°40'0 0.0
2018-May-21 09:56N 37°06' W 008°40'0 0.0
2018-May-21 09:26N 37°06' W 008°40'0 0.0
2018-May-21 08:56N 37°06' W 008°40'0 0.0
2018-May-21 08:26N 37°06' W 008°40'0 0.0
2018-May-21 07:56N 37°06' W 008°40'0 0.0
2018-May-21 07:26N 37°06' W 008°40'0 0.0
2018-May-21 06:56N 37°06' W 008°40'0 0.0
2018-May-21 06:26N 37°06' W 008°40'0 0.0
2018-May-21 05:59N 37°06' W 008°40'0 0.0
2018-May-21 05:26N 37°06' W 008°40'0 0.0
2018-May-21 04:56N 37°06' W 008°40'0 0.0
2018-May-21 04:26N 37°06' W 008°40'0 0.0
2018-May-21 03:56N 37°06' W 008°40'0 0.0
2018-May-21 03:26N 37°06' W 008°40'0 0.0
2018-May-21 02:56N 37°06' W 008°40'0 0.0
2018-May-21 02:26N 37°06' W 008°40'0 0.0
2018-May-21 01:56N 37°06' W 008°40'0 0.0
2018-May-21 01:26N 37°06' W 008°40'0 0.0
2018-May-21 00:59N 37°06' W 008°40'0 0.0
2018-May-21 00:26N 37°06' W 008°40'0 0.0
2018-May-20 23:56N 37°06' W 008°40'0 0.0
2018-May-20 23:26N 37°06' W 008°40'0 0.0
2018-May-20 22:56N 37°06' W 008°40'0 0.0
2018-May-20 22:26N 37°06' W 008°40'0 0.0
2018-May-20 21:59N 37°06' W 008°40'0 0.0
2018-May-20 21:26N 37°06' W 008°40'0 0.0
2018-May-20 20:56N 37°06' W 008°40'0 0.0
2018-May-20 20:26N 37°06' W 008°40'0 0.0
2018-May-20 19:56N 37°06' W 008°40'0 0.0
2018-May-20 19:20N 37°06' W 008°40'0 0.0
2018-May-20 18:56N 37°06' W 008°40'1 1.4
2018-May-20 18:31N 37°05' W 008°39'3 5.5
2018-May-20 18:01N 37°03' W 008°41'7 4.2
2018-May-20 16:25N 37°01' W 008°49'2 5.5
2018-May-20 16:00N 37°01' W 008°46'2 4.6
2018-May-20 15:31N 37°03' W 008°44'2 3.4
2018-May-20 15:01N 37°03' W 008°47'3 5.5
2018-May-20 14:30N 37°02' W 008°50'4 7.4
2018-May-20 14:00N 37°01' W 008°54'1 1.9
2018-May-20 13:24N 37°01' W 008°56'0 0.0
2018-May-20 13:00N 37°01' W 008°56'0 0.0
2018-May-20 12:30N 37°01' W 008°56'0 0.0
2018-May-20 12:00N 37°01' W 008°56'0 0.0
2018-May-20 11:30N 37°01' W 008°56'0 0.0
2018-May-20 11:00N 37°01' W 008°56'0 0.0
2018-May-20 10:30N 37°01' W 008°56'0 0.0
2018-May-20 10:00N 37°01' W 008°56'0 0.0
2018-May-20 09:24N 37°01' W 008°56'0 0.0
2018-May-20 09:00N 37°01' W 008°56'0 0.1
2018-May-20 08:30N 37°01' W 008°56'1 1.6
2018-May-20 07:52N 36°60' W 008°56'0 0.0
2018-May-20 07:28N 36°60' W 008°56'0 0.0
2018-May-20 06:58N 36°60' W 008°56'0 0.0
2018-May-20 06:28N 36°60' W 008°56'0 0.0
2018-May-20 05:58N 36°60' W 008°56'0 0.0
2018-May-20 05:28N 36°60' W 008°56'0 0.0
2018-May-20 04:58N 36°60' W 008°56'0 0.0
2018-May-20 02:10N 36°60' W 008°56'0 0.0
2018-May-20 01:58N 36°60' W 008°56'0 0.0
2018-May-20 01:28N 36°60' W 008°56'0 0.0
2018-May-20 00:52N 36°60' W 008°56'0 0.0
2018-May-20 00:28N 36°60' W 008°56'0 0.0
2018-May-19 23:52N 36°60' W 008°56'0 0.0
2018-May-19 23:22N 36°60' W 008°56'0 0.0
2018-May-19 22:58N 36°60' W 008°56'0 0.1
2018-May-19 22:30N 36°60' W 008°56'2 4.0
2018-May-19 21:59N 36°60' W 008°59'13 6.2
2018-May-19 19:54N 37°12' W 009°02'3 7.2
2018-May-19 19:26N 37°16' W 009°02'3 7.1
2018-May-19 18:58N 37°19' W 009°01'4 7.0
2018-May-19 18:27N 37°22' W 009°01'3 7.3
2018-May-19 18:00N 37°26' W 009°01'4 7.2
2018-May-19 17:29N 37°29' W 009°00'4 7.1
2018-May-19 17:00N 37°33' W 008°59'3 7.1
2018-May-19 16:31N 37°36' W 008°59'4 7.0
2018-May-19 16:00N 37°40' W 008°59'3 5.6
2018-May-19 15:31N 37°43' W 008°59'4 8.4
2018-May-19 15:00N 37°47' W 008°59'4 8.5
2018-May-19 14:31N 37°51' W 008°59'4 8.1
2018-May-19 14:00N 37°55' W 008°58'4 7.8
2018-May-19 13:31N 37°59' W 008°58'3 6.5
2018-May-19 13:00N 38°02' W 008°58'2 4.2
2018-May-19 12:30N 38°04' W 008°58'3 6.6
2018-May-19 12:00N 38°07' W 009°00'3 6.6
2018-May-19 11:30N 38°10' W 009°03'3 6.5
2018-May-19 11:00N 38°13' W 009°05'3 6.8
2018-May-19 10:30N 38°15' W 009°08'3 6.5
2018-May-19 10:00N 38°18' W 009°10'3 6.5
2018-May-19 09:30N 38°20' W 009°12'3 6.3
2018-May-19 09:00N 38°23' W 009°15'3 6.2
2018-May-19 08:30N 38°26' W 009°16'3 6.1
2018-May-19 08:00N 38°29' W 009°18'3 6.2
2018-May-19 07:30N 38°31' W 009°20'3 6.1
2018-May-19 07:00N 38°34' W 009°22'3 5.1
2018-May-19 06:30N 38°36' W 009°24'3 5.3
2018-May-19 06:01N 38°39' W 009°24'2 3.7
2018-May-19 05:30N 38°40' W 009°25'1 2.5
2018-May-19 05:00N 38°42' W 009°25'0 0.0
2018-May-19 04:30N 38°42' W 009°25'0 0.0
2018-May-19 04:00N 38°42' W 009°25'0 0.0
2018-May-19 03:30N 38°42' W 009°25'0 0.0
2018-May-19 02:54N 38°42' W 009°25'0 0.0
2018-May-19 02:30N 38°42' W 009°25'0 0.0
2018-May-19 02:00N 38°42' W 009°25'0 0.0
2018-May-19 01:30N 38°42' W 009°25'0 0.0
2018-May-19 01:00N 38°42' W 009°25'0 0.0
2018-May-19 00:30N 38°42' W 009°25'0 0.0
2018-May-18 23:57N 38°42' W 009°25'0 0.0
2018-May-18 23:30N 38°42' W 009°25'0 0.0
2018-May-18 23:00N 38°42' W 009°25'0 0.2
2018-May-18 22:30N 38°42' W 009°25'0 0.0
2018-May-18 22:00N 38°42' W 009°25'0 0.0
2018-May-18 21:30N 38°42' W 009°25'0 0.0
2018-May-18 20:54N 38°42' W 009°25'0 0.0
2018-May-18 20:30N 38°42' W 009°25'0 0.0
2018-May-18 20:00N 38°42' W 009°25'0 0.0
2018-May-18 19:30N 38°42' W 009°25'0 0.0
2018-May-18 19:00N 38°42' W 009°25'0 0.0
2018-May-18 18:30N 38°42' W 009°25'0 0.0
2018-May-18 18:00N 38°42' W 009°25'0 0.0
2018-May-18 17:30N 38°42' W 009°25'0 0.0
2018-May-18 17:00N 38°42' W 009°25'0 0.0
2018-May-18 16:27N 38°42' W 009°25'0 0.0
2018-May-18 16:00N 38°42' W 009°25'0 0.0
2018-May-18 15:30N 38°42' W 009°25'0 0.0
2018-May-18 15:00N 38°42' W 009°25'0 0.0
2018-May-18 14:30N 38°42' W 009°25'0 0.0
2018-May-18 14:00N 38°42' W 009°25'0 0.0
2018-May-18 13:30N 38°42' W 009°25'0 0.0
2018-May-18 13:00N 38°42' W 009°25'0 0.0
2018-May-18 12:30N 38°42' W 009°25'0 0.0
2018-May-18 11:54N 38°42' W 009°25'0 0.0
2018-May-18 11:30N 38°42' W 009°25'0 0.0
2018-May-18 11:00N 38°42' W 009°25'0 0.0
2018-May-18 10:30N 38°42' W 009°25'0 0.0
2018-May-18 10:00N 38°42' W 009°25'0 0.0
2018-May-18 09:30N 38°42' W 009°25'0 0.0
2018-May-18 09:00N 38°42' W 009°25'0 0.0
2018-May-18 08:30N 38°42' W 009°25'0 0.0
2018-May-18 08:00N 38°42' W 009°25'0 0.0
2018-May-18 07:30N 38°42' W 009°25'0 0.0
2018-May-18 07:00N 38°42' W 009°25'0 0.0
2018-May-18 06:30N 38°42' W 009°25'0 0.0
2018-May-18 06:00N 38°42' W 009°25'0 0.1
2018-May-18 05:30N 38°42' W 009°25'0 0.0
2018-May-18 05:00N 38°42' W 009°25'0 0.0
2018-May-18 04:30N 38°42' W 009°25'0 0.0
2018-May-18 03:57N 38°42' W 009°25'0 0.1
2018-May-18 03:30N 38°42' W 009°25'0 0.0
2018-May-18 03:00N 38°42' W 009°25'0 0.0
2018-May-18 02:30N 38°42' W 009°25'0 0.0
2018-May-18 02:00N 38°42' W 009°25'0 0.0
2018-May-18 01:30N 38°42' W 009°25'0 0.0
2018-May-18 01:00N 38°42' W 009°25'0 0.0
2018-May-18 00:30N 38°42' W 009°25'0 0.0
2018-May-18 00:00N 38°42' W 009°25'0 0.0
2018-May-17 23:30N 38°42' W 009°25'0 0.0
2018-May-17 23:00N 38°42' W 009°25'0 0.0
2018-May-17 22:27N 38°42' W 009°25'0 0.0
2018-May-17 22:00N 38°42' W 009°25'0 0.0
2018-May-17 21:27N 38°42' W 009°25'0 0.0
2018-May-17 20:57N 38°42' W 009°25'0 0.0
2018-May-17 20:30N 38°42' W 009°25'0 0.0
2018-May-17 20:00N 38°42' W 009°25'0 0.0
2018-May-17 19:30N 38°42' W 009°25'0 0.0
2018-May-17 18:57N 38°42' W 009°25'0 0.0
2018-May-17 18:30N 38°42' W 009°25'0 0.0
2018-May-17 18:00N 38°42' W 009°25'0 0.0
2018-May-17 17:30N 38°42' W 009°25'0 0.0
2018-May-17 17:00N 38°42' W 009°25'0 0.0
2018-May-17 16:30N 38°42' W 009°25'0 0.0
2018-May-17 16:00N 38°42' W 009°25'0 0.0
2018-May-17 15:30N 38°42' W 009°25'0 0.0
2018-May-17 15:00N 38°42' W 009°25'0 0.0
2018-May-17 14:30N 38°42' W 009°25'0 0.0
2018-May-17 14:00N 38°42' W 009°25'0 0.0
2018-May-17 13:30N 38°42' W 009°25'0 0.0
2018-May-17 12:57N 38°42' W 009°25'0 0.0
2018-May-17 12:30N 38°42' W 009°25'0 0.0
2018-May-17 12:00N 38°42' W 009°25'0 0.0
2018-May-17 11:30N 38°42' W 009°25'0 0.0
2018-May-17 10:57N 38°42' W 009°25'0 0.0
2018-May-17 10:30N 38°42' W 009°25'0 0.0
2018-May-17 09:51N 38°42' W 009°25'0 0.0
2018-May-17 09:30N 38°42' W 009°25'0 0.0
2018-May-17 09:00N 38°42' W 009°25'0 0.0
2018-May-17 08:30N 38°42' W 009°25'0 0.0
2018-May-17 08:00N 38°42' W 009°25'0 0.0
2018-May-17 07:27N 38°42' W 009°25'0 0.0
2018-May-17 06:57N 38°42' W 009°25'0 0.0
2018-May-17 06:30N 38°42' W 009°25'0 0.0
2018-May-17 06:00N 38°42' W 009°25'1 1.6
2018-May-17 05:31N 38°41' W 009°25'1 2.9
2018-May-17 05:00N 38°40' W 009°27'2 4.6
2018-May-17 04:30N 38°39' W 009°29'4 7.6
2018-May-17 04:01N 38°38' W 009°34'4 7.8
2018-May-17 03:30N 38°37' W 009°39'4 8.0
2018-May-17 03:01N 38°36' W 009°43'4 8.3
2018-May-17 02:30N 38°34' W 009°48'4 8.7
2018-May-17 02:00N 38°34' W 009°54'4 8.6
2018-May-17 01:31N 38°33' W 009°59'4 8.3
2018-May-17 01:01N 38°32' W 010°05'4 7.5
2018-May-17 00:30N 38°31' W 010°09'4 8.0
2018-May-17 00:01N 38°32' W 010°14'4 7.7
2018-May-16 23:30N 38°33' W 010°19'4 8.8
2018-May-16 23:00N 38°36' W 010°24'4 8.8
2018-May-16 22:31N 38°38' W 010°28'4 8.1
2018-May-16 22:00N 38°40' W 010°33'4 8.1
2018-May-16 21:30N 38°42' W 010°37'4 7.3
2018-May-16 21:00N 38°44' W 010°42'4 7.9
2018-May-16 20:30N 38°45' W 010°46'4 7.4
2018-May-16 20:00N 38°47' W 010°51'4 7.2
2018-May-16 19:30N 38°48' W 010°55'4 7.3
2018-May-16 19:00N 38°50' W 010°59'4 7.3
2018-May-16 18:31N 38°52' W 011°03'4 7.0
2018-May-16 18:00N 38°53' W 011°07'4 7.4
2018-May-16 17:30N 38°55' W 011°11'4 7.6
2018-May-16 16:59N 38°57' W 011°16'4 7.9
2018-May-16 16:30N 38°58' W 011°20'4 8.4
2018-May-16 15:58N 39°00' W 011°25'39 7.5
2018-May-16 10:46N 39°16' W 012°11'2 8.3
2018-May-16 10:30N 39°17' W 012°14'13 8.4
2018-May-16 09:00N 39°21' W 012°30'5 8.9
2018-May-16 08:28N 39°22' W 012°35'5 8.1
2018-May-16 07:50N 39°24' W 012°42'4 8.3
2018-May-16 07:24N 39°24' W 012°46'3 8.6
2018-May-16 07:00N 39°24' W 012°51'  
2018-May-13 08:48N 38°33' W 023°49'2 6.5
2018-May-13 08:30N 38°32' W 023°51'3 6.6
2018-May-13 08:01N 38°31' W 023°55'3 6.6
2018-May-13 07:30N 38°30' W 023°59'  
Track history (hours):
 
Tides and Currents Weather Stations Pressure Air Temp Water Temp Dewpoint Dewpoint Depression Visibility Wind Speed Wind Dir Waves Ship Positions

Rhea

Last reported at 2018-May-23 07:17 UTC. Time now 2018-May-25 05:22 UTC.
Position N 37°01' W 007°38'.

Length 48 m; draft 4.2 m.

Type: Sailing vessel. MMSI: 244060297.

Date/timePositionNaut miles runAvg speedWind from/ knotsBaromVisibWave heightAir tempDewpointWater temp
2018-May-23 07:17N 37°01' W 007°38'3 6.4
2018-May-23 06:52N 36°60' W 007°41'10 0.3
2018-May-21 18:05N 36°57' W 007°53'1 5.9
2018-May-21 18:00N 36°56' W 007°54'5 6.0
2018-May-21 17:14N 36°53' W 007°58'2 7.3
2018-May-21 16:57N 36°54' W 008°00'4 7.9
2018-May-21 16:30N 36°54' W 008°04'4 7.7
2018-May-21 16:00N 36°55' W 008°09'4 8.5
2018-May-21 15:30N 36°57' W 008°14'4 8.4
2018-May-21 15:00N 36°58' W 008°19'4 7.9
2018-May-21 14:30N 36°59' W 008°24'4 7.8
2018-May-21 14:00N 37°00' W 008°29'4 7.6
2018-May-21 13:31N 37°02' W 008°33'2 3.5
2018-May-21 13:00N 37°03' W 008°34'3 6.1
2018-May-21 12:30N 37°05' W 008°37'2 4.3
2018-May-21 12:01N 37°06' W 008°40'0 0.1
2018-May-21 11:26N 37°06' W 008°40'0 0.0
2018-May-21 10:56N 37°06' W 008°40'0 0.0
2018-May-21 10:26N 37°06' W 008°40'0 0.0
2018-May-21 09:56N 37°06' W 008°40'0 0.0
2018-May-21 09:26N 37°06' W 008°40'0 0.0
2018-May-21 08:56N 37°06' W 008°40'0 0.0
2018-May-21 08:26N 37°06' W 008°40'0 0.0
2018-May-21 07:56N 37°06' W 008°40'0 0.0
2018-May-21 07:26N 37°06' W 008°40'0 0.0
2018-May-21 06:56N 37°06' W 008°40'0 0.0
2018-May-21 06:26N 37°06' W 008°40'0 0.0
2018-May-21 05:59N 37°06' W 008°40'0 0.0
2018-May-21 05:26N 37°06' W 008°40'0 0.0
2018-May-21 04:56N 37°06' W 008°40'0 0.0
2018-May-21 04:26N 37°06' W 008°40'0 0.0
2018-May-21 03:56N 37°06' W 008°40'0 0.0
2018-May-21 03:26N 37°06' W 008°40'0 0.0
2018-May-21 02:56N 37°06' W 008°40'0 0.0
2018-May-21 02:26N 37°06' W 008°40'0 0.0
2018-May-21 01:56N 37°06' W 008°40'0 0.0
2018-May-21 01:26N 37°06' W 008°40'0 0.0
2018-May-21 00:59N 37°06' W 008°40'0 0.0
2018-May-21 00:26N 37°06' W 008°40'0 0.0
2018-May-20 23:56N 37°06' W 008°40'0 0.0
2018-May-20 23:26N 37°06' W 008°40'0 0.0
2018-May-20 22:56N 37°06' W 008°40'0 0.0
2018-May-20 22:26N 37°06' W 008°40'0 0.0
2018-May-20 21:59N 37°06' W 008°40'0 0.0
2018-May-20 21:26N 37°06' W 008°40'0 0.0
2018-May-20 20:56N 37°06' W 008°40'0 0.0
2018-May-20 20:26N 37°06' W 008°40'0 0.0
2018-May-20 19:56N 37°06' W 008°40'0 0.0
2018-May-20 19:20N 37°06' W 008°40'0 0.0
2018-May-20 18:56N 37°06' W 008°40'1 1.4
2018-May-20 18:31N 37°05' W 008°39'3 5.5
2018-May-20 18:01N 37°03' W 008°41'7 4.2
2018-May-20 16:25N 37°01' W 008°49'2 5.5
2018-May-20 16:00N 37°01' W 008°46'2 4.6
2018-May-20 15:31N 37°03' W 008°44'2 3.4
2018-May-20 15:01N 37°03' W 008°47'3 5.5
2018-May-20 14:30N 37°02' W 008°50'4 7.4
2018-May-20 14:00N 37°01' W 008°54'1 1.9
2018-May-20 13:24N 37°01' W 008°56'0 0.0
2018-May-20 13:00N 37°01' W 008°56'0 0.0
2018-May-20 12:30N 37°01' W 008°56'0 0.0
2018-May-20 12:00N 37°01' W 008°56'0 0.0
2018-May-20 11:30N 37°01' W 008°56'0 0.0
2018-May-20 11:00N 37°01' W 008°56'0 0.0
2018-May-20 10:30N 37°01' W 008°56'0 0.0
2018-May-20 10:00N 37°01' W 008°56'0 0.0
2018-May-20 09:24N 37°01' W 008°56'0 0.0
2018-May-20 09:00N 37°01' W 008°56'0 0.1
2018-May-20 08:30N 37°01' W 008°56'1 1.6
2018-May-20 07:52N 36°60' W 008°56'0 0.0
2018-May-20 07:28N 36°60' W 008°56'0 0.0
2018-May-20 06:58N 36°60' W 008°56'0 0.0
2018-May-20 06:28N 36°60' W 008°56'0 0.0
2018-May-20 05:58N 36°60' W 008°56'0 0.0
2018-May-20 05:28N 36°60' W 008°56'0 0.0
2018-May-20 04:58N 36°60' W 008°56'0 0.0
2018-May-20 02:10N 36°60' W 008°56'0 0.0
2018-May-20 01:58N 36°60' W 008°56'0 0.0
2018-May-20 01:28N 36°60' W 008°56'0 0.0
2018-May-20 00:52N 36°60' W 008°56'0 0.0
2018-May-20 00:28N 36°60' W 008°56'0 0.0
2018-May-19 23:52N 36°60' W 008°56'0 0.0
2018-May-19 23:22N 36°60' W 008°56'0 0.0
2018-May-19 22:58N 36°60' W 008°56'0 0.1
2018-May-19 22:30N 36°60' W 008°56'2 4.0
2018-May-19 21:59N 36°60' W 008°59'13 6.2
2018-May-19 19:54N 37°12' W 009°02'3 7.2
2018-May-19 19:26N 37°16' W 009°02'3 7.1
2018-May-19 18:58N 37°19' W 009°01'4 7.0
2018-May-19 18:27N 37°22' W 009°01'3 7.3
2018-May-19 18:00N 37°26' W 009°01'4 7.2
2018-May-19 17:29N 37°29' W 009°00'4 7.1
2018-May-19 17:00N 37°33' W 008°59'3 7.1
2018-May-19 16:31N 37°36' W 008°59'4 7.0
2018-May-19 16:00N 37°40' W 008°59'3 5.6
2018-May-19 15:31N 37°43' W 008°59'4 8.4
2018-May-19 15:00N 37°47' W 008°59'4 8.5
2018-May-19 14:31N 37°51' W 008°59'4 8.1
2018-May-19 14:00N 37°55' W 008°58'4 7.8
2018-May-19 13:31N 37°59' W 008°58'3 6.5
2018-May-19 13:00N 38°02' W 008°58'2 4.2
2018-May-19 12:30N 38°04' W 008°58'3 6.6
2018-May-19 12:00N 38°07' W 009°00'3 6.6
2018-May-19 11:30N 38°10' W 009°03'3 6.5
2018-May-19 11:00N 38°13' W 009°05'3 6.8
2018-May-19 10:30N 38°15' W 009°08'3 6.5
2018-May-19 10:00N 38°18' W 009°10'3 6.5
2018-May-19 09:30N 38°20' W 009°12'3 6.3
2018-May-19 09:00N 38°23' W 009°15'3 6.2
2018-May-19 08:30N 38°26' W 009°16'3 6.1
2018-May-19 08:00N 38°29' W 009°18'3 6.2
2018-May-19 07:30N 38°31' W 009°20'3 6.1
2018-May-19 07:00N 38°34' W 009°22'3 5.1
2018-May-19 06:30N 38°36' W 009°24'3 5.3
2018-May-19 06:01N 38°39' W 009°24'2 3.7
2018-May-19 05:30N 38°40' W 009°25'1 2.5
2018-May-19 05:00N 38°42' W 009°25'0 0.0
2018-May-19 04:30N 38°42' W 009°25'0 0.0
2018-May-19 04:00N 38°42' W 009°25'0 0.0
2018-May-19 03:30N 38°42' W 009°25'0 0.0
2018-May-19 02:54N 38°42' W 009°25'0 0.0
2018-May-19 02:30N 38°42' W 009°25'0 0.0
2018-May-19 02:00N 38°42' W 009°25'0 0.0
2018-May-19 01:30N 38°42' W 009°25'0 0.0
2018-May-19 01:00N 38°42' W 009°25'0 0.0
2018-May-19 00:30N 38°42' W 009°25'0 0.0
2018-May-18 23:57N 38°42' W 009°25'0 0.0
2018-May-18 23:30N 38°42' W 009°25'0 0.0
2018-May-18 23:00N 38°42' W 009°25'0 0.2
2018-May-18 22:30N 38°42' W 009°25'0 0.0
2018-May-18 22:00N 38°42' W 009°25'0 0.0
2018-May-18 21:30N 38°42' W 009°25'0 0.0
2018-May-18 20:54N 38°42' W 009°25'0 0.0
2018-May-18 20:30N 38°42' W 009°25'0 0.0
2018-May-18 20:00N 38°42' W 009°25'0 0.0
2018-May-18 19:30N 38°42' W 009°25'0 0.0
2018-May-18 19:00N 38°42' W 009°25'0 0.0
2018-May-18 18:30N 38°42' W 009°25'0 0.0
2018-May-18 18:00N 38°42' W 009°25'0 0.0
2018-May-18 17:30N 38°42' W 009°25'0 0.0
2018-May-18 17:00N 38°42' W 009°25'0 0.0
2018-May-18 16:27N 38°42' W 009°25'0 0.0
2018-May-18 16:00N 38°42' W 009°25'0 0.0
2018-May-18 15:30N 38°42' W 009°25'0 0.0
2018-May-18 15:00N 38°42' W 009°25'0 0.0
2018-May-18 14:30N 38°42' W 009°25'0 0.0
2018-May-18 14:00N 38°42' W 009°25'0 0.0
2018-May-18 13:30N 38°42' W 009°25'0 0.0
2018-May-18 13:00N 38°42' W 009°25'0 0.0
2018-May-18 12:30N 38°42' W 009°25'0 0.0
2018-May-18 11:54N 38°42' W 009°25'0 0.0
2018-May-18 11:30N 38°42' W 009°25'0 0.0
2018-May-18 11:00N 38°42' W 009°25'0 0.0
2018-May-18 10:30N 38°42' W 009°25'0 0.0
2018-May-18 10:00N 38°42' W 009°25'0 0.0
2018-May-18 09:30N 38°42' W 009°25'0 0.0
2018-May-18 09:00N 38°42' W 009°25'0 0.0
2018-May-18 08:30N 38°42' W 009°25'0 0.0
2018-May-18 08:00N 38°42' W 009°25'0 0.0
2018-May-18 07:30N 38°42' W 009°25'0 0.0
2018-May-18 07:00N 38°42' W 009°25'0 0.0
2018-May-18 06:30N 38°42' W 009°25'0 0.0
2018-May-18 06:00N 38°42' W 009°25'0 0.1
2018-May-18 05:30N 38°42' W 009°25'0 0.0
2018-May-18 05:00N 38°42' W 009°25'0 0.0
2018-May-18 04:30N 38°42' W 009°25'0 0.0
2018-May-18 03:57N 38°42' W 009°25'0 0.1
2018-May-18 03:30N 38°42' W 009°25'0 0.0
2018-May-18 03:00N 38°42' W 009°25'0 0.0
2018-May-18 02:30N 38°42' W 009°25'0 0.0
2018-May-18 02:00N 38°42' W 009°25'0 0.0
2018-May-18 01:30N 38°42' W 009°25'0 0.0
2018-May-18 01:00N 38°42' W 009°25'0 0.0
2018-May-18 00:30N 38°42' W 009°25'0 0.0
2018-May-18 00:00N 38°42' W 009°25'0 0.0
2018-May-17 23:30N 38°42' W 009°25'0 0.0
2018-May-17 23:00N 38°42' W 009°25'0 0.0
2018-May-17 22:27N 38°42' W 009°25'0 0.0
2018-May-17 22:00N 38°42' W 009°25'0 0.0
2018-May-17 21:27N 38°42' W 009°25'0 0.0
2018-May-17 20:57N 38°42' W 009°25'0 0.0
2018-May-17 20:30N 38°42' W 009°25'0 0.0
2018-May-17 20:00N 38°42' W 009°25'0 0.0
2018-May-17 19:30N 38°42' W 009°25'0 0.0
2018-May-17 18:57N 38°42' W 009°25'0 0.0
2018-May-17 18:30N 38°42' W 009°25'0 0.0
2018-May-17 18:00N 38°42' W 009°25'0 0.0
2018-May-17 17:30N 38°42' W 009°25'0 0.0
2018-May-17 17:00N 38°42' W 009°25'0 0.0
2018-May-17 16:30N 38°42' W 009°25'0 0.0
2018-May-17 16:00N 38°42' W 009°25'0 0.0
2018-May-17 15:30N 38°42' W 009°25'0 0.0
2018-May-17 15:00N 38°42' W 009°25'0 0.0
2018-May-17 14:30N 38°42' W 009°25'0 0.0
2018-May-17 14:00N 38°42' W 009°25'0 0.0
2018-May-17 13:30N 38°42' W 009°25'0 0.0
2018-May-17 12:57N 38°42' W 009°25'0 0.0
2018-May-17 12:30N 38°42' W 009°25'0 0.0
2018-May-17 12:00N 38°42' W 009°25'0 0.0
2018-May-17 11:30N 38°42' W 009°25'0 0.0
2018-May-17 10:57N 38°42' W 009°25'0 0.0
2018-May-17 10:30N 38°42' W 009°25'0 0.0
2018-May-17 09:51N 38°42' W 009°25'0 0.0
2018-May-17 09:30N 38°42' W 009°25'0 0.0
2018-May-17 09:00N 38°42' W 009°25'0 0.0
2018-May-17 08:30N 38°42' W 009°25'0 0.0
2018-May-17 08:00N 38°42' W 009°25'0 0.0
2018-May-17 07:27N 38°42' W 009°25'0 0.0
2018-May-17 06:57N 38°42' W 009°25'0 0.0
2018-May-17 06:30N 38°42' W 009°25'0 0.0
2018-May-17 06:00N 38°42' W 009°25'1 1.6
2018-May-17 05:31N 38°41' W 009°25'1 2.9
2018-May-17 05:00N 38°40' W 009°27'2 4.6
2018-May-17 04:30N 38°39' W 009°29'4 7.6
2018-May-17 04:01N 38°38' W 009°34'4 7.8
2018-May-17 03:30N 38°37' W 009°39'4 8.0
2018-May-17 03:01N 38°36' W 009°43'4 8.3
2018-May-17 02:30N 38°34' W 009°48'4 8.7
2018-May-17 02:00N 38°34' W 009°54'4 8.6
2018-May-17 01:31N 38°33' W 009°59'4 8.3
2018-May-17 01:01N 38°32' W 010°05'4 7.5
2018-May-17 00:30N 38°31' W 010°09'4 8.0
2018-May-17 00:01N 38°32' W 010°14'4 7.7
2018-May-16 23:30N 38°33' W 010°19'4 8.8
2018-May-16 23:00N 38°36' W 010°24'4 8.8
2018-May-16 22:31N 38°38' W 010°28'4 8.1
2018-May-16 22:00N 38°40' W 010°33'4 8.1
2018-May-16 21:30N 38°42' W 010°37'4 7.3
2018-May-16 21:00N 38°44' W 010°42'4 7.9
2018-May-16 20:30N 38°45' W 010°46'4 7.4
2018-May-16 20:00N 38°47' W 010°51'4 7.2
2018-May-16 19:30N 38°48' W 010°55'4 7.3
2018-May-16 19:00N 38°50' W 010°59'4 7.3
2018-May-16 18:31N 38°52' W 011°03'4 7.0
2018-May-16 18:00N 38°53' W 011°07'4 7.4
2018-May-16 17:30N 38°55' W 011°11'4 7.6
2018-May-16 16:59N 38°57' W 011°16'4 7.9
2018-May-16 16:30N 38°58' W 011°20'4 8.4
2018-May-16 15:58N 39°00' W 011°25'39 7.5
2018-May-16 10:46N 39°16' W 012°11'2 8.3
2018-May-16 10:30N 39°17' W 012°14'13 8.4
2018-May-16 09:00N 39°21' W 012°30'5 8.9
2018-May-16 08:28N 39°22' W 012°35'5 8.1
2018-May-16 07:50N 39°24' W 012°42'4 8.3
2018-May-16 07:24N 39°24' W 012°46'3 8.6
2018-May-16 07:00N 39°24' W 012°51'  
2018-May-13 08:48N 38°33' W 023°49'2 6.5
2018-May-13 08:30N 38°32' W 023°51'3 6.6
2018-May-13 08:01N 38°31' W 023°55'3 6.6
2018-May-13 07:30N 38°30' W 023°59'  

Dump ship's entire track history